sensor_id;sensor_type;location;lat;lon;timestamp;temperature;humidity
19232;DHT22;9750;48.730;10.294;2023-07-30T00:02:09;18.90;99.90
19232;DHT22;9750;48.730;10.294;2023-07-30T00:04:36;18.90;99.90
19232;DHT22;9750;48.730;10.294;2023-07-30T00:07:04;18.90;99.90
19232;DHT22;9750;48.730;10.294;2023-07-30T00:09:31;18.90;99.90
19232;DHT22;9750;48.730;10.294;2023-07-30T00:11:58;18.90;99.90
19232;DHT22;9750;48.730;10.294;2023-07-30T00:14:27;18.90;99.90
19232;DHT22;9750;48.730;10.294;2023-07-30T00:16:55;18.90;99.90
19232;DHT22;9750;48.730;10.294;2023-07-30T00:19:23;18.80;99.90
19232;DHT22;9750;48.730;10.294;2023-07-30T00:21:51;18.80;99.90
19232;DHT22;9750;48.730;10.294;2023-07-30T00:24:18;18.90;99.90
19232;DHT22;9750;48.730;10.294;2023-07-30T00:26:45;18.90;99.90
19232;DHT22;9750;48.730;10.294;2023-07-30T00:29:12;18.80;99.90
19232;DHT22;9750;48.730;10.294;2023-07-30T00:31:40;17.80;99.90
19232;DHT22;9750;48.730;10.294;2023-07-30T00:34:07;17.60;99.90
19232;DHT22;9750;48.730;10.294;2023-07-30T00:36:36;17.30;99.90
19232;DHT22;9750;48.730;10.294;2023-07-30T00:39:03;17.10;99.90
19232;DHT22;9750;48.730;10.294;2023-07-30T00:41:30;17.00;99.90
19232;DHT22;9750;48.730;10.294;2023-07-30T00:43:58;16.70;99.90
19232;DHT22;9750;48.730;10.294;2023-07-30T00:46:25;16.50;99.90
19232;DHT22;9750;48.730;10.294;2023-07-30T00:48:52;16.50;99.90
19232;DHT22;9750;48.730;10.294;2023-07-30T00:51:20;16.50;99.90
19232;DHT22;9750;48.730;10.294;2023-07-30T00:53:49;16.60;99.90
19232;DHT22;9750;48.730;10.294;2023-07-30T00:56:16;16.60;99.90
19232;DHT22;9750;48.730;10.294;2023-07-30T00:58:44;16.60;99.90
19232;DHT22;9750;48.730;10.294;2023-07-30T01:01:15;16.60;99.90
19232;DHT22;9750;48.730;10.294;2023-07-30T01:03:42;16.60;99.90
19232;DHT22;9750;48.730;10.294;2023-07-30T01:06:09;16.60;99.90
19232;DHT22;9750;48.730;10.294;2023-07-30T01:08:37;16.70;99.90
19232;DHT22;9750;48.730;10.294;2023-07-30T01:11:06;16.60;99.90
19232;DHT22;9750;48.730;10.294;2023-07-30T01:13:35;16.50;99.90
19232;DHT22;9750;48.730;10.294;2023-07-30T01:16:04;16.40;99.90
19232;DHT22;9750;48.730;10.294;2023-07-30T01:18:32;16.30;99.90
19232;DHT22;9750;48.730;10.294;2023-07-30T01:21:01;16.30;99.90
19232;DHT22;9750;48.730;10.294;2023-07-30T01:23:28;16.30;99.90
19232;DHT22;9750;48.730;10.294;2023-07-30T01:26:01;16.20;99.90
19232;DHT22;9750;48.730;10.294;2023-07-30T01:28:36;16.20;99.90
19232;DHT22;9750;48.730;10.294;2023-07-30T01:31:05;16.30;99.90
19232;DHT22;9750;48.730;10.294;2023-07-30T01:33:33;16.20;99.90
19232;DHT22;9750;48.730;10.294;2023-07-30T01:36:02;16.20;99.90
19232;DHT22;9750;48.730;10.294;2023-07-30T01:38:30;16.10;99.90
19232;DHT22;9750;48.730;10.294;2023-07-30T01:40:58;16.10;99.90
19232;DHT22;9750;48.730;10.294;2023-07-30T01:43:25;16.20;99.90
19232;DHT22;9750;48.730;10.294;2023-07-30T01:45:52;16.20;99.90
19232;DHT22;9750;48.730;10.294;2023-07-30T01:48:19;16.20;99.90
19232;DHT22;9750;48.730;10.294;2023-07-30T01:50:47;16.20;99.90
19232;DHT22;9750;48.730;10.294;2023-07-30T01:53:16;16.10;99.90
19232;DHT22;9750;48.730;10.294;2023-07-30T01:55:43;16.00;99.90
19232;DHT22;9750;48.730;10.294;2023-07-30T01:58:11;16.10;99.90
19232;DHT22;9750;48.730;10.294;2023-07-30T02:00:39;16.10;99.90
19232;DHT22;9750;48.730;10.294;2023-07-30T02:03:06;16.10;99.90
19232;DHT22;9750;48.730;10.294;2023-07-30T02:05:33;16.00;99.90
19232;DHT22;9750;48.730;10.294;2023-07-30T02:08:01;16.10;99.90
19232;DHT22;9750;48.730;10.294;2023-07-30T02:10:29;16.10;99.90
19232;DHT22;9750;48.730;10.294;2023-07-30T02:12:57;16.10;99.90
19232;DHT22;9750;48.730;10.294;2023-07-30T02:15:24;16.10;99.90
19232;DHT22;9750;48.730;10.294;2023-07-30T02:17:51;16.10;99.90
19232;DHT22;9750;48.730;10.294;2023-07-30T02:20:18;16.10;99.90
19232;DHT22;9750;48.730;10.294;2023-07-30T02:22:45;16.10;99.90
19232;DHT22;9750;48.730;10.294;2023-07-30T02:25:13;16.00;99.90
19232;DHT22;9750;48.730;10.294;2023-07-30T02:27:42;16.10;99.90
19232;DHT22;9750;48.730;10.294;2023-07-30T02:30:10;16.10;99.90
19232;DHT22;9750;48.730;10.294;2023-07-30T02:32:37;16.20;99.90
19232;DHT22;9750;48.730;10.294;2023-07-30T02:35:05;16.10;99.90
19232;DHT22;9750;48.730;10.294;2023-07-30T02:37:32;16.20;99.90
19232;DHT22;9750;48.730;10.294;2023-07-30T02:39:59;16.10;99.90
19232;DHT22;9750;48.730;10.294;2023-07-30T02:42:30;16.20;99.90
19232;DHT22;9750;48.730;10.294;2023-07-30T02:44:59;16.20;99.90
19232;DHT22;9750;48.730;10.294;2023-07-30T02:47:26;16.20;99.90
19232;DHT22;9750;48.730;10.294;2023-07-30T02:49:53;16.20;99.90
19232;DHT22;9750;48.730;10.294;2023-07-30T02:52:21;16.10;99.90
19232;DHT22;9750;48.730;10.294;2023-07-30T02:54:48;16.10;99.90
19232;DHT22;9750;48.730;10.294;2023-07-30T02:57:15;16.10;99.90
19232;DHT22;9750;48.730;10.294;2023-07-30T02:59:42;16.10;99.90
19232;DHT22;9750;48.730;10.294;2023-07-30T03:02:11;16.00;99.90
19232;DHT22;9750;48.730;10.294;2023-07-30T03:04:38;16.10;99.90
19232;DHT22;9750;48.730;10.294;2023-07-30T03:07:06;16.10;99.90
19232;DHT22;9750;48.730;10.294;2023-07-30T03:09:33;16.10;99.90
19232;DHT22;9750;48.730;10.294;2023-07-30T03:12:01;16.10;99.90
19232;DHT22;9750;48.730;10.294;2023-07-30T03:14:29;16.10;99.90
19232;DHT22;9750;48.730;10.294;2023-07-30T03:16:56;16.20;99.90
19232;DHT22;9750;48.730;10.294;2023-07-30T03:19:25;16.20;99.90
19232;DHT22;9750;48.730;10.294;2023-07-30T03:21:52;16.20;99.90
19232;DHT22;9750;48.730;10.294;2023-07-30T03:24:19;16.20;99.90
19232;DHT22;9750;48.730;10.294;2023-07-30T03:26:47;16.20;99.90
19232;DHT22;9750;48.730;10.294;2023-07-30T03:29:14;16.20;99.90
19232;DHT22;9750;48.730;10.294;2023-07-30T03:31:42;16.20;99.90
19232;DHT22;9750;48.730;10.294;2023-07-30T03:34:09;16.30;99.90
19232;DHT22;9750;48.730;10.294;2023-07-30T03:36:37;16.30;99.90
19232;DHT22;9750;48.730;10.294;2023-07-30T03:39:05;16.30;99.90
19232;DHT22;9750;48.730;10.294;2023-07-30T03:41:32;16.30;99.90
19232;DHT22;9750;48.730;10.294;2023-07-30T03:44:01;16.30;99.90
19232;DHT22;9750;48.730;10.294;2023-07-30T03:46:28;16.30;99.90
19232;DHT22;9750;48.730;10.294;2023-07-30T03:48:55;16.30;99.90
19232;DHT22;9750;48.730;10.294;2023-07-30T03:51:22;16.30;99.90
19232;DHT22;9750;48.730;10.294;2023-07-30T03:53:51;16.30;99.90
19232;DHT22;9750;48.730;10.294;2023-07-30T03:56:18;16.30;99.90
19232;DHT22;9750;48.730;10.294;2023-07-30T03:58:46;16.30;99.90
19232;DHT22;9750;48.730;10.294;2023-07-30T04:01:13;16.40;99.90
19232;DHT22;9750;48.730;10.294;2023-07-30T04:03:40;16.40;99.90
19232;DHT22;9750;48.730;10.294;2023-07-30T04:06:07;16.50;99.90
19232;DHT22;9750;48.730;10.294;2023-07-30T04:08:35;16.50;99.90
19232;DHT22;9750;48.730;10.294;2023-07-30T04:11:03;16.50;99.90
19232;DHT22;9750;48.730;10.294;2023-07-30T04:13:31;16.50;99.90
19232;DHT22;9750;48.730;10.294;2023-07-30T04:15:58;16.50;99.90
19232;DHT22;9750;48.730;10.294;2023-07-30T04:18:26;16.60;99.90
19232;DHT22;9750;48.730;10.294;2023-07-30T04:20:54;16.60;99.90
19232;DHT22;9750;48.730;10.294;2023-07-30T04:23:21;16.60;99.90
19232;DHT22;9750;48.730;10.294;2023-07-30T04:25:49;16.60;99.90
19232;DHT22;9750;48.730;10.294;2023-07-30T04:28:18;16.70;99.90
19232;DHT22;9750;48.730;10.294;2023-07-30T04:30:45;16.70;99.90
19232;DHT22;9750;48.730;10.294;2023-07-30T04:33:13;16.70;99.90
19232;DHT22;9750;48.730;10.294;2023-07-30T04:35:40;16.70;99.90
19232;DHT22;9750;48.730;10.294;2023-07-30T04:38:07;16.80;99.90
19232;DHT22;9750;48.730;10.294;2023-07-30T04:40:35;16.80;99.90
19232;DHT22;9750;48.730;10.294;2023-07-30T04:43:02;16.70;99.90
19232;DHT22;9750;48.730;10.294;2023-07-30T04:45:31;16.70;99.90
19232;DHT22;9750;48.730;10.294;2023-07-30T04:47:58;16.70;99.90
19232;DHT22;9750;48.730;10.294;2023-07-30T04:50:25;16.70;99.90
19232;DHT22;9750;48.730;10.294;2023-07-30T04:52:52;16.70;99.90
19232;DHT22;9750;48.730;10.294;2023-07-30T04:55:20;16.80;99.90
19232;DHT22;9750;48.730;10.294;2023-07-30T04:57:47;16.80;99.90
19232;DHT22;9750;48.730;10.294;2023-07-30T05:00:14;16.80;99.90
19232;DHT22;9750;48.730;10.294;2023-07-30T05:02:43;16.80;99.90
19232;DHT22;9750;48.730;10.294;2023-07-30T05:05:10;16.90;99.90
19232;DHT22;9750;48.730;10.294;2023-07-30T05:07:38;17.10;99.90
19232;DHT22;9750;48.730;10.294;2023-07-30T05:10:06;17.10;99.90
19232;DHT22;9750;48.730;10.294;2023-07-30T05:12:36;17.20;99.90
19232;DHT22;9750;48.730;10.294;2023-07-30T05:15:04;17.10;99.90
19232;DHT22;9750;48.730;10.294;2023-07-30T05:17:31;17.20;99.90
19232;DHT22;9750;48.730;10.294;2023-07-30T05:20:00;17.30;99.90
19232;DHT22;9750;48.730;10.294;2023-07-30T05:22:27;17.40;99.90
19232;DHT22;9750;48.730;10.294;2023-07-30T05:24:55;17.50;99.90
19232;DHT22;9750;48.730;10.294;2023-07-30T05:27:22;17.50;99.90
19232;DHT22;9750;48.730;10.294;2023-07-30T05:29:49;17.60;99.90
19232;DHT22;9750;48.730;10.294;2023-07-30T05:32:16;17.60;99.90
19232;DHT22;9750;48.730;10.294;2023-07-30T05:34:44;17.70;99.90
19232;DHT22;9750;48.730;10.294;2023-07-30T05:37:12;17.70;99.90
19232;DHT22;9750;48.730;10.294;2023-07-30T05:39:40;17.70;99.90
19232;DHT22;9750;48.730;10.294;2023-07-30T05:42:07;17.70;99.90
19232;DHT22;9750;48.730;10.294;2023-07-30T05:44:34;17.70;99.90
19232;DHT22;9750;48.730;10.294;2023-07-30T05:47:02;17.80;99.90
19232;DHT22;9750;48.730;10.294;2023-07-30T05:49:29;17.80;99.90
19232;DHT22;9750;48.730;10.294;2023-07-30T05:51:56;17.80;99.90
19232;DHT22;9750;48.730;10.294;2023-07-30T05:54:25;17.80;99.90
19232;DHT22;9750;48.730;10.294;2023-07-30T05:56:52;17.80;99.90
19232;DHT22;9750;48.730;10.294;2023-07-30T05:59:20;17.90;99.90
19232;DHT22;9750;48.730;10.294;2023-07-30T06:01:47;17.90;99.90
19232;DHT22;9750;48.730;10.294;2023-07-30T06:04:14;18.00;99.90
19232;DHT22;9750;48.730;10.294;2023-07-30T06:06:41;17.90;99.90
19232;DHT22;9750;48.730;10.294;2023-07-30T06:09:09;17.90;99.90
19232;DHT22;9750;48.730;10.294;2023-07-30T06:11:38;17.90;99.90
19232;DHT22;9750;48.730;10.294;2023-07-30T06:14:06;17.90;99.90
19232;DHT22;9750;48.730;10.294;2023-07-30T06:16:33;17.90;99.90
19232;DHT22;9750;48.730;10.294;2023-07-30T06:19:00;17.90;99.90
19232;DHT22;9750;48.730;10.294;2023-07-30T06:21:27;17.90;99.90
19232;DHT22;9750;48.730;10.294;2023-07-30T06:23:54;17.90;99.90
19232;DHT22;9750;48.730;10.294;2023-07-30T06:26:22;17.90;99.90
19232;DHT22;9750;48.730;10.294;2023-07-30T06:28:50;18.00;99.90
19232;DHT22;9750;48.730;10.294;2023-07-30T06:31:18;18.10;99.90
19232;DHT22;9750;48.730;10.294;2023-07-30T06:33:45;18.10;99.90
19232;DHT22;9750;48.730;10.294;2023-07-30T06:36:12;18.20;99.90
19232;DHT22;9750;48.730;10.294;2023-07-30T06:38:39;18.20;99.90
19232;DHT22;9750;48.730;10.294;2023-07-30T06:41:07;18.30;99.90
19232;DHT22;9750;48.730;10.294;2023-07-30T06:43:34;18.40;99.90
19232;DHT22;9750;48.730;10.294;2023-07-30T06:46:03;18.40;99.90
19232;DHT22;9750;48.730;10.294;2023-07-30T06:48:30;18.40;99.90
19232;DHT22;9750;48.730;10.294;2023-07-30T06:50:57;18.50;99.90
19232;DHT22;9750;48.730;10.294;2023-07-30T06:53:25;18.50;99.90
19232;DHT22;9750;48.730;10.294;2023-07-30T06:55:52;18.50;99.90
19232;DHT22;9750;48.730;10.294;2023-07-30T06:58:19;18.60;99.90
19232;DHT22;9750;48.730;10.294;2023-07-30T07:00:46;18.60;99.90
19232;DHT22;9750;48.730;10.294;2023-07-30T07:03:15;18.70;99.90
19232;DHT22;9750;48.730;10.294;2023-07-30T07:05:42;18.70;99.90
19232;DHT22;9750;48.730;10.294;2023-07-30T07:08:10;18.80;99.90
19232;DHT22;9750;48.730;10.294;2023-07-30T07:10:38;18.80;99.90
19232;DHT22;9750;48.730;10.294;2023-07-30T07:13:05;18.80;99.90
19232;DHT22;9750;48.730;10.294;2023-07-30T07:15:32;18.80;99.90
19232;DHT22;9750;48.730;10.294;2023-07-30T07:18:00;18.90;99.90
19232;DHT22;9750;48.730;10.294;2023-07-30T07:20:28;19.00;99.90
19232;DHT22;9750;48.730;10.294;2023-07-30T07:22:55;19.10;99.90
19232;DHT22;9750;48.730;10.294;2023-07-30T07:25:23;19.00;99.90
19232;DHT22;9750;48.730;10.294;2023-07-30T07:28:09;19.10;99.90
19232;DHT22;9750;48.730;10.294;2023-07-30T07:30:36;19.10;99.90
19232;DHT22;9750;48.730;10.294;2023-07-30T07:33:04;19.20;99.90
19232;DHT22;9750;48.730;10.294;2023-07-30T07:35:33;19.20;99.90
19232;DHT22;9750;48.730;10.294;2023-07-30T07:38:00;19.20;99.90
19232;DHT22;9750;48.730;10.294;2023-07-30T07:40:28;19.20;99.90
19232;DHT22;9750;48.730;10.294;2023-07-30T07:42:55;19.30;99.90
19232;DHT22;9750;48.730;10.294;2023-07-30T07:45:22;19.40;99.90
19232;DHT22;9750;48.730;10.294;2023-07-30T07:47:50;19.50;99.90
19232;DHT22;9750;48.730;10.294;2023-07-30T07:50:17;19.60;99.90
19232;DHT22;9750;48.730;10.294;2023-07-30T07:52:46;19.70;99.90
19232;DHT22;9750;48.730;10.294;2023-07-30T07:55:13;19.70;99.90
19232;DHT22;9750;48.730;10.294;2023-07-30T07:57:40;19.60;99.90
19232;DHT22;9750;48.730;10.294;2023-07-30T08:00:08;19.70;99.90
19232;DHT22;9750;48.730;10.294;2023-07-30T08:02:36;19.70;99.90
19232;DHT22;9750;48.730;10.294;2023-07-30T08:05:04;19.60;99.90
19232;DHT22;9750;48.730;10.294;2023-07-30T08:07:31;19.60;99.90
19232;DHT22;9750;48.730;10.294;2023-07-30T08:10:00;19.60;99.90
19232;DHT22;9750;48.730;10.294;2023-07-30T08:12:27;19.60;99.90
19232;DHT22;9750;48.730;10.294;2023-07-30T08:14:54;19.60;99.90
19232;DHT22;9750;48.730;10.294;2023-07-30T08:17:48;19.70;99.90
19232;DHT22;9750;48.730;10.294;2023-07-30T08:20:15;19.80;99.90
19232;DHT22;9750;48.730;10.294;2023-07-30T08:22:42;19.80;99.90
19232;DHT22;9750;48.730;10.294;2023-07-30T08:25:11;19.90;99.90
19232;DHT22;9750;48.730;10.294;2023-07-30T08:27:38;19.90;99.90
19232;DHT22;9750;48.730;10.294;2023-07-30T08:30:07;19.90;99.90
19232;DHT22;9750;48.730;10.294;2023-07-30T08:32:34;20.00;99.90
19232;DHT22;9750;48.730;10.294;2023-07-30T08:35:02;20.10;99.90
19232;DHT22;9750;48.730;10.294;2023-07-30T08:37:29;20.20;99.90
19232;DHT22;9750;48.730;10.294;2023-07-30T08:39:56;20.20;99.90
19232;DHT22;9750;48.730;10.294;2023-07-30T08:42:25;20.20;99.90
19232;DHT22;9750;48.730;10.294;2023-07-30T08:44:52;20.20;99.90
19232;DHT22;9750;48.730;10.294;2023-07-30T08:47:19;20.10;99.90
19232;DHT22;9750;48.730;10.294;2023-07-30T08:49:47;20.20;99.90
19232;DHT22;9750;48.730;10.294;2023-07-30T08:52:16;20.30;99.90
19232;DHT22;9750;48.730;10.294;2023-07-30T08:54:44;20.30;99.90
19232;DHT22;9750;48.730;10.294;2023-07-30T08:57:16;20.30;99.90
19232;DHT22;9750;48.730;10.294;2023-07-30T08:59:50;20.20;99.90
19232;DHT22;9750;48.730;10.294;2023-07-30T09:02:26;20.00;99.90
19232;DHT22;9750;48.730;10.294;2023-07-30T09:04:58;19.80;99.90
19232;DHT22;9750;48.730;10.294;2023-07-30T09:07:37;19.60;99.90
19232;DHT22;9750;48.730;10.294;2023-07-30T09:10:05;19.60;99.90
19232;DHT22;9750;48.730;10.294;2023-07-30T09:12:33;19.70;99.90
19232;DHT22;9750;48.730;10.294;2023-07-30T09:15:05;19.70;99.90
19232;DHT22;9750;48.730;10.294;2023-07-30T09:17:33;19.80;99.90
19232;DHT22;9750;48.730;10.294;2023-07-30T09:20:00;19.90;99.90
19232;DHT22;9750;48.730;10.294;2023-07-30T09:22:30;20.00;99.90
19232;DHT22;9750;48.730;10.294;2023-07-30T09:25:01;20.00;99.90
19232;DHT22;9750;48.730;10.294;2023-07-30T09:27:29;20.00;99.90
19232;DHT22;9750;48.730;10.294;2023-07-30T09:29:59;19.90;99.90
19232;DHT22;9750;48.730;10.294;2023-07-30T09:32:31;19.90;99.90
19232;DHT22;9750;48.730;10.294;2023-07-30T09:35:04;19.80;99.90
19232;DHT22;9750;48.730;10.294;2023-07-30T09:37:39;19.70;99.90
19232;DHT22;9750;48.730;10.294;2023-07-30T09:40:08;19.60;99.90
19232;DHT22;9750;48.730;10.294;2023-07-30T09:42:36;19.50;99.90
19232;DHT22;9750;48.730;10.294;2023-07-30T09:45:06;19.50;99.90
19232;DHT22;9750;48.730;10.294;2023-07-30T09:47:36;19.40;99.90
19232;DHT22;9750;48.730;10.294;2023-07-30T09:50:11;19.40;99.90
19232;DHT22;9750;48.730;10.294;2023-07-30T09:52:38;19.50;99.90
19232;DHT22;9750;48.730;10.294;2023-07-30T09:55:08;19.60;99.90
19232;DHT22;9750;48.730;10.294;2023-07-30T09:57:36;19.50;99.90
19232;DHT22;9750;48.730;10.294;2023-07-30T10:00:04;19.50;99.90
19232;DHT22;9750;48.730;10.294;2023-07-30T10:02:32;19.50;99.90
19232;DHT22;9750;48.730;10.294;2023-07-30T10:05:10;19.40;99.90
19232;DHT22;9750;48.730;10.294;2023-07-30T10:07:42;19.50;99.90
19232;DHT22;9750;48.730;10.294;2023-07-30T10:10:11;19.60;99.90
19232;DHT22;9750;48.730;10.294;2023-07-30T10:12:40;19.60;99.90
19232;DHT22;9750;48.730;10.294;2023-07-30T10:15:09;19.70;99.90
19232;DHT22;9750;48.730;10.294;2023-07-30T10:17:37;19.60;99.90
19232;DHT22;9750;48.730;10.294;2023-07-30T10:20:25;19.70;99.90
19232;DHT22;9750;48.730;10.294;2023-07-30T10:22:56;19.90;99.90
19232;DHT22;9750;48.730;10.294;2023-07-30T10:25:27;19.90;99.90
19232;DHT22;9750;48.730;10.294;2023-07-30T10:27:55;20.10;99.90
19232;DHT22;9750;48.730;10.294;2023-07-30T10:30:24;20.20;99.90
19232;DHT22;9750;48.730;10.294;2023-07-30T10:33:02;20.40;99.90
19232;DHT22;9750;48.730;10.294;2023-07-30T10:35:39;20.40;99.90
19232;DHT22;9750;48.730;10.294;2023-07-30T10:38:17;20.60;99.90
19232;DHT22;9750;48.730;10.294;2023-07-30T10:41:02;20.70;99.90
19232;DHT22;9750;48.730;10.294;2023-07-30T10:43:30;20.70;99.90
19232;DHT22;9750;48.730;10.294;2023-07-30T10:46:03;20.80;99.90
19232;DHT22;9750;48.730;10.294;2023-07-30T10:48:36;20.70;99.90
19232;DHT22;9750;48.730;10.294;2023-07-30T10:51:06;20.60;99.90
19232;DHT22;9750;48.730;10.294;2023-07-30T10:53:33;20.70;99.90
19232;DHT22;9750;48.730;10.294;2023-07-30T10:56:03;20.70;99.90
19232;DHT22;9750;48.730;10.294;2023-07-30T10:58:32;20.60;99.90
19232;DHT22;9750;48.730;10.294;2023-07-30T11:01:01;20.70;99.90
19232;DHT22;9750;48.730;10.294;2023-07-30T11:03:28;20.70;99.90
19232;DHT22;9750;48.730;10.294;2023-07-30T11:05:57;20.70;99.90
19232;DHT22;9750;48.730;10.294;2023-07-30T11:08:58;20.70;99.90
19232;DHT22;9750;48.730;10.294;2023-07-30T11:11:25;20.40;99.90
19232;DHT22;9750;48.730;10.294;2023-07-30T11:13:53;20.20;99.90
19232;DHT22;9750;48.730;10.294;2023-07-30T11:16:20;19.90;99.90
19232;DHT22;9750;48.730;10.294;2023-07-30T11:18:47;19.60;99.90
19232;DHT22;9750;48.730;10.294;2023-07-30T11:21:16;19.20;99.90
19232;DHT22;9750;48.730;10.294;2023-07-30T11:23:45;18.80;99.90
19232;DHT22;9750;48.730;10.294;2023-07-30T11:26:16;18.80;99.90
19232;DHT22;9750;48.730;10.294;2023-07-30T11:28:44;18.80;99.90
19232;DHT22;9750;48.730;10.294;2023-07-30T11:31:13;18.90;99.90
19232;DHT22;9750;48.730;10.294;2023-07-30T11:33:42;19.00;99.90
19232;DHT22;9750;48.730;10.294;2023-07-30T11:39:00;19.30;99.90
19232;DHT22;9750;48.730;10.294;2023-07-30T11:41:29;19.50;99.90
19232;DHT22;9750;48.730;10.294;2023-07-30T11:43:56;19.60;99.90
19232;DHT22;9750;48.730;10.294;2023-07-30T11:46:23;19.80;99.90
19232;DHT22;9750;48.730;10.294;2023-07-30T11:48:52;19.90;99.90
19232;DHT22;9750;48.730;10.294;2023-07-30T11:51:21;19.90;99.90
19232;DHT22;9750;48.730;10.294;2023-07-30T11:53:51;19.80;99.90
19232;DHT22;9750;48.730;10.294;2023-07-30T11:59:42;19.70;99.90
19232;DHT22;9750;48.730;10.294;2023-07-30T12:02:14;19.90;99.90
19232;DHT22;9750;48.730;10.294;2023-07-30T12:04:43;20.00;99.90
19232;DHT22;9750;48.730;10.294;2023-07-30T12:07:11;20.10;99.90
19232;DHT22;9750;48.730;10.294;2023-07-30T12:09:38;20.30;99.90
19232;DHT22;9750;48.730;10.294;2023-07-30T12:12:06;20.60;99.90
19232;DHT22;9750;48.730;10.294;2023-07-30T12:14:45;20.60;99.90
19232;DHT22;9750;48.730;10.294;2023-07-30T12:17:19;20.50;99.90
19232;DHT22;9750;48.730;10.294;2023-07-30T12:19:47;20.40;99.90
19232;DHT22;9750;48.730;10.294;2023-07-30T12:22:14;20.40;99.90
19232;DHT22;9750;48.730;10.294;2023-07-30T12:24:41;20.30;99.90
19232;DHT22;9750;48.730;10.294;2023-07-30T12:27:08;20.20;99.90
19232;DHT22;9750;48.730;10.294;2023-07-30T12:29:36;20.10;99.90
19232;DHT22;9750;48.730;10.294;2023-07-30T12:32:05;20.00;99.90
19232;DHT22;9750;48.730;10.294;2023-07-30T12:34:38;19.90;99.90
19232;DHT22;9750;48.730;10.294;2023-07-30T12:37:06;19.90;99.90
19232;DHT22;9750;48.730;10.294;2023-07-30T12:39:33;20.00;99.90
19232;DHT22;9750;48.730;10.294;2023-07-30T12:42:00;20.10;99.90
19232;DHT22;9750;48.730;10.294;2023-07-30T12:44:27;20.00;99.90
19232;DHT22;9750;48.730;10.294;2023-07-30T12:46:54;20.10;99.90
19232;DHT22;9750;48.730;10.294;2023-07-30T12:49:23;20.10;99.90
19232;DHT22;9750;48.730;10.294;2023-07-30T12:51:50;20.20;99.90
19232;DHT22;9750;48.730;10.294;2023-07-30T12:54:18;20.20;99.90
19232;DHT22;9750;48.730;10.294;2023-07-30T12:56:45;20.20;99.40
19232;DHT22;9750;48.730;10.294;2023-07-30T12:59:12;20.10;99.90
19232;DHT22;9750;48.730;10.294;2023-07-30T13:01:40;20.00;98.30
19232;DHT22;9750;48.730;10.294;2023-07-30T13:04:07;19.90;98.30
19232;DHT22;9750;48.730;10.294;2023-07-30T13:06:36;19.90;98.90
19232;DHT22;9750;48.730;10.294;2023-07-30T13:09:03;20.00;99.10
19232;DHT22;9750;48.730;10.294;2023-07-30T13:11:30;20.00;99.00
19232;DHT22;9750;48.730;10.294;2023-07-30T13:13:57;20.00;99.40
19232;DHT22;9750;48.730;10.294;2023-07-30T13:16:24;20.10;99.20
19232;DHT22;9750;48.730;10.294;2023-07-30T13:18:52;20.10;98.70
19232;DHT22;9750;48.730;10.294;2023-07-30T13:21:22;20.00;97.90
19232;DHT22;9750;48.730;10.294;2023-07-30T13:23:51;20.10;97.20
19232;DHT22;9750;48.730;10.294;2023-07-30T13:26:18;20.10;97.30
19232;DHT22;9750;48.730;10.294;2023-07-30T13:28:46;20.10;97.40
19232;DHT22;9750;48.730;10.294;2023-07-30T13:31:13;20.20;96.60
19232;DHT22;9750;48.730;10.294;2023-07-30T13:33:40;20.30;97.30
19232;DHT22;9750;48.730;10.294;2023-07-30T13:36:08;20.40;96.00
19232;DHT22;9750;48.730;10.294;2023-07-30T13:38:39;20.40;95.80
19232;DHT22;9750;48.730;10.294;2023-07-30T13:41:10;20.20;96.00
19232;DHT22;9750;48.730;10.294;2023-07-30T13:43:37;20.30;97.10
19232;DHT22;9750;48.730;10.294;2023-07-30T13:46:05;20.30;95.50
19232;DHT22;9750;48.730;10.294;2023-07-30T13:48:32;20.40;95.50
19232;DHT22;9750;48.730;10.294;2023-07-30T13:50:59;20.40;95.30
19232;DHT22;9750;48.730;10.294;2023-07-30T13:53:26;20.50;96.00
19232;DHT22;9750;48.730;10.294;2023-07-30T13:55:53;20.60;95.10
19232;DHT22;9750;48.730;10.294;2023-07-30T13:58:22;20.70;95.70
19232;DHT22;9750;48.730;10.294;2023-07-30T14:00:50;20.70;95.20
19232;DHT22;9750;48.730;10.294;2023-07-30T14:03:20;20.80;95.00
19232;DHT22;9750;48.730;10.294;2023-07-30T14:05:47;20.90;95.20
19232;DHT22;9750;48.730;10.294;2023-07-30T14:08:14;21.00;94.60
19232;DHT22;9750;48.730;10.294;2023-07-30T14:10:42;21.00;93.90
19232;DHT22;9750;48.730;10.294;2023-07-30T14:13:09;21.00;94.30
19232;DHT22;9750;48.730;10.294;2023-07-30T14:15:37;21.00;94.20
19232;DHT22;9750;48.730;10.294;2023-07-30T14:18:05;21.00;95.20
19232;DHT22;9750;48.730;10.294;2023-07-30T14:20:32;21.10;93.40
19232;DHT22;9750;48.730;10.294;2023-07-30T14:23:00;21.20;94.30
19232;DHT22;9750;48.730;10.294;2023-07-30T14:25:30;21.30;94.60
19232;DHT22;9750;48.730;10.294;2023-07-30T14:27:58;21.20;93.20
19232;DHT22;9750;48.730;10.294;2023-07-30T14:30:25;21.10;93.90
19232;DHT22;9750;48.730;10.294;2023-07-30T14:32:54;21.00;93.50
19232;DHT22;9750;48.730;10.294;2023-07-30T14:35:21;20.90;93.70
19232;DHT22;9750;48.730;10.294;2023-07-30T14:37:48;21.00;94.40
19232;DHT22;9750;48.730;10.294;2023-07-30T14:40:15;21.10;93.20
19232;DHT22;9750;48.730;10.294;2023-07-30T14:42:43;21.10;93.00
19232;DHT22;9750;48.730;10.294;2023-07-30T14:45:10;21.10;92.80
19232;DHT22;9750;48.730;10.294;2023-07-30T14:47:38;21.00;93.20
19232;DHT22;9750;48.730;10.294;2023-07-30T14:50:07;20.90;92.90
19232;DHT22;9750;48.730;10.294;2023-07-30T14:52:35;20.90;93.20
19232;DHT22;9750;48.730;10.294;2023-07-30T14:55:02;20.90;93.00
19232;DHT22;9750;48.730;10.294;2023-07-30T14:57:29;20.90;93.60
19232;DHT22;9750;48.730;10.294;2023-07-30T14:59:58;21.00;93.20
19232;DHT22;9750;48.730;10.294;2023-07-30T15:02:26;21.10;92.70
19232;DHT22;9750;48.730;10.294;2023-07-30T15:04:53;21.10;92.90
19232;DHT22;9750;48.730;10.294;2023-07-30T15:07:22;21.00;92.50
19232;DHT22;9750;48.730;10.294;2023-07-30T15:09:51;21.00;92.30
19232;DHT22;9750;48.730;10.294;2023-07-30T15:12:19;21.00;92.40
19232;DHT22;9750;48.730;10.294;2023-07-30T15:14:47;21.20;92.70
19232;DHT22;9750;48.730;10.294;2023-07-30T15:17:14;21.30;92.30
19232;DHT22;9750;48.730;10.294;2023-07-30T15:19:42;21.20;91.00
19232;DHT22;9750;48.730;10.294;2023-07-30T15:22:12;21.10;90.90
19232;DHT22;9750;48.730;10.294;2023-07-30T15:24:41;21.10;92.00
19232;DHT22;9750;48.730;10.294;2023-07-30T15:27:08;21.20;92.20
19232;DHT22;9750;48.730;10.294;2023-07-30T15:29:35;21.20;90.70
19232;DHT22;9750;48.730;10.294;2023-07-30T15:32:03;21.10;90.80
19232;DHT22;9750;48.730;10.294;2023-07-30T15:34:30;21.10;91.20
19232;DHT22;9750;48.730;10.294;2023-07-30T15:36:58;21.00;91.20
19232;DHT22;9750;48.730;10.294;2023-07-30T15:39:26;21.00;91.60
19232;DHT22;9750;48.730;10.294;2023-07-30T15:41:54;21.10;91.40
19232;DHT22;9750;48.730;10.294;2023-07-30T15:44:22;21.10;91.30